createdAt,value
2018-07-06T00:00:56.981Z,100892.42
2018-07-06T00:04:18.934Z,100893.36
2018-07-06T00:07:40.658Z,100889.77
2018-07-06T00:11:02.962Z,100889.77
2018-07-06T00:14:25.867Z,100883.16
2018-07-06T00:17:47.647Z,100879.38
2018-07-06T00:21:09.582Z,100882.21
2018-07-06T00:24:31.560Z,100889.98
2018-07-06T00:27:54.408Z,100886.27
2018-07-06T00:31:16.931Z,100884.31
2018-07-06T00:34:39.748Z,100879.12
2018-07-06T00:38:02.627Z,100887.73
2018-07-06T00:41:25.630Z,100883.38
2018-07-06T00:44:48.393Z,100888.09
2018-07-06T00:48:10.986Z,100882.55
2018-07-06T00:51:33.727Z,100884.56
2018-07-06T00:54:55.628Z,100885.85
2018-07-06T00:58:23.098Z,100891.26
2018-07-06T01:01:45.498Z,100893.74
2018-07-06T01:05:08.376Z,100893.74
2018-07-06T01:08:32.020Z,100890.33
2018-07-06T01:11:54.307Z,100891.51
2018-07-06T01:15:21.418Z,100897.27
2018-07-06T01:18:44.135Z,100898.92
2018-07-06T01:22:06.891Z,100895.39
2018-07-06T01:25:33.806Z,100896.70
2018-07-06T01:28:55.876Z,100899.39
2018-07-06T01:32:18.531Z,100905.88
2018-07-06T01:35:41.399Z,100907.64
2018-07-06T01:39:04.377Z,100900.69
2018-07-06T01:42:26.911Z,100908.00
2018-07-06T01:45:48.693Z,100915.77
2018-07-06T01:49:11.410Z,100905.05
2018-07-06T01:52:34.148Z,100911.53
2018-07-06T01:55:56.882Z,100907.53
2018-07-06T01:59:18.774Z,100920.49
2018-07-06T02:02:40.610Z,100923.55
2018-07-06T02:06:02.546Z,100918.37
2018-07-06T02:09:24.224Z,100925.31
2018-07-06T02:12:46.114Z,100930.50
2018-07-06T02:16:08.003Z,100927.55
2018-07-06T02:19:30.700Z,100930.14
2018-07-06T02:22:53.041Z,100939.21
2018-07-06T02:26:15.085Z,100928.37
2018-07-06T02:29:36.947Z,100932.34
2018-07-06T02:32:58.768Z,100924.20
2018-07-06T02:36:20.758Z,100930.58
2018-07-06T02:39:42.693Z,100928.92
2018-07-06T02:43:05.558Z,100930.58
2018-07-06T02:46:28.347Z,100931.98
2018-07-06T02:49:51.177Z,100934.69
2018-07-06T02:53:13.829Z,100933.39
2018-07-06T02:56:36.562Z,100936.34
2018-07-06T02:59:59.516Z,100937.28
2018-07-06T03:03:21.270Z,100942.00
2018-07-06T03:06:44.070Z,100942.93
2018-07-06T03:10:06.595Z,100949.30
2018-07-06T03:13:29.145Z,100945.41
2018-07-06T03:16:51.102Z,100946.34
2018-07-06T03:20:13.693Z,100949.30
2018-07-06T03:23:36.397Z,100945.87
2018-07-06T03:26:58.250Z,100948.00
2018-07-06T03:30:19.967Z,100957.91
2018-07-06T03:33:41.723Z,100950.59
2018-07-06T03:37:03.974Z,100949.30
2018-07-06T03:40:26.857Z,100959.09
2018-07-06T03:43:49.731Z,100964.20
2018-07-06T03:47:12.511Z,100970.32
2018-07-06T03:50:35.157Z,100970.68
2018-07-06T03:53:56.848Z,100970.32
2018-07-06T03:57:18.718Z,100965.39
2018-07-06T04:00:40.509Z,100965.49
2018-07-06T04:04:02.307Z,100970.21
2018-07-06T04:07:24.030Z,100967.98
2018-07-06T04:10:46.696Z,100968.70
2018-07-06T04:14:09.311Z,100966.94
2018-07-06T04:17:32.855Z,100966.94
2018-07-06T04:20:54.639Z,100969.06
2018-07-06T04:24:16.364Z,100972.37
2018-07-06T04:27:39.774Z,100974.49
2018-07-06T04:31:01.613Z,100981.33
2018-07-06T04:34:23.342Z,100977.80
2018-07-06T04:37:45.113Z,100982.91
2018-07-06T04:41:06.838Z,100985.03
2018-07-06T04:44:29.237Z,100983.16
2018-07-06T04:47:51.881Z,100983.16
2018-07-06T04:51:14.713Z,100977.03
2018-07-06T04:54:37.605Z,100975.63
2018-07-06T04:58:00.342Z,100983.77
2018-07-06T05:01:22.098Z,100987.19
2018-07-06T05:04:43.980Z,100985.78
2018-07-06T05:08:06.006Z,100982.25
2018-07-06T05:11:27.713Z,100987.36
2018-07-06T05:14:49.554Z,100990.78
2018-07-06T05:18:11.433Z,100995.97
2018-07-06T05:21:33.298Z,100990.56
2018-07-06T05:24:56.102Z,100996.58
2018-07-06T05:28:18.036Z,100997.44
2018-07-06T05:31:40.154Z,100997.80
2018-07-06T05:35:03.052Z,101004.64
2018-07-06T05:38:25.285Z,101001.22
2018-07-06T05:41:47.209Z,101001.94
2018-07-06T05:45:09.018Z,101007.84
2018-07-06T05:48:31.541Z,101003.95
2018-07-06T05:51:54.566Z,101012.84
2018-07-06T05:55:16.951Z,101012.01
2018-07-06T05:58:39.601Z,101013.66
2018-07-06T06:02:01.526Z,101013.66
2018-07-06T06:05:24.130Z,101023.93
2018-07-06T06:08:34.854Z,101020.87
2018-07-06T06:11:40.424Z,101031.96
2018-07-06T06:14:45.573Z,101022.88
2018-07-06T06:17:51.092Z,101027.49
2018-07-06T06:20:56.247Z,101027.85
2018-07-06T06:24:02.111Z,101029.89
2018-07-06T06:27:07.378Z,101028.96
2018-07-06T06:30:12.565Z,101031.91
2018-07-06T06:33:18.529Z,101036.63
2018-07-06T06:36:24.427Z,101037.23
2018-07-06T06:39:29.494Z,101034.64
2018-07-06T06:42:35.226Z,101031.94
2018-07-06T06:45:41.042Z,101036.19
2018-07-06T06:48:46.193Z,101031.83
2018-07-06T06:51:52.390Z,101037.41
2018-07-06T06:54:57.293Z,101048.50
2018-07-06T06:58:02.838Z,101048.50
2018-07-06T07:01:10.147Z,101052.64
2018-07-06T07:04:15.839Z,101054.88
2018-07-06T07:07:20.951Z,101056.64
2018-07-06T07:10:25.950Z,101054.52
2018-07-06T07:13:32.186Z,101061.48
2018-07-06T07:16:37.614Z,101058.30
2018-07-06T07:19:42.770Z,101060.42
2018-07-06T07:22:48.264Z,101064.56
2018-07-06T07:25:53.982Z,101069.40
2018-07-06T07:28:59.015Z,101073.29
2018-07-06T07:32:04.556Z,101071.77
2018-07-06T07:35:09.872Z,101071.05
2018-07-06T07:38:14.988Z,101070.70
2018-07-06T07:41:20.962Z,101074.95
2018-07-06T07:44:26.674Z,101074.12
2018-07-06T07:47:32.818Z,101081.21
2018-07-06T07:50:48.599Z,101070.48
2018-07-06T07:54:04.681Z,101076.41
2018-07-06T07:57:10.830Z,101077.24
2018-07-06T08:00:16.302Z,101075.25
2018-07-06T08:03:21.280Z,101078.56
2018-07-06T08:06:26.177Z,101079.09
2018-07-06T08:09:32.142Z,101084.78
2018-07-06T08:12:39.211Z,101080.08
2018-07-06T08:15:44.946Z,101078.01
2018-07-06T08:18:50.849Z,101081.02
2018-07-06T08:21:55.964Z,101073.95
2018-07-06T08:25:01.973Z,101073.66
2018-07-06T08:28:07.448Z,101083.70
2018-07-06T08:31:12.558Z,101083.28
2018-07-06T08:34:28.937Z,101080.34
2018-07-06T08:37:47.186Z,101084.31
2018-07-06T08:40:51.981Z,101083.97
2018-07-06T08:43:57.316Z,101081.66
2018-07-06T08:47:02.158Z,101087.21
2018-07-06T08:50:08.422Z,101085.95
2018-07-06T08:53:15.698Z,101084.45
2018-07-06T08:56:21.422Z,101087.30
2018-07-06T08:59:26.227Z,101092.18
2018-07-06T09:02:32.110Z,101087.60
2018-07-06T09:05:37.926Z,101096.85
2018-07-06T09:08:43.938Z,101094.39
2018-07-06T09:11:49.037Z,101109.70
2018-07-06T09:14:54.886Z,101100.26
2018-07-06T09:18:00.423Z,101100.00
2018-07-06T09:21:05.859Z,101100.61
2018-07-06T09:24:12.211Z,101107.59
2018-07-06T09:27:17.923Z,101115.05
2018-07-06T09:30:23.540Z,101108.19
2018-07-06T09:33:29.561Z,101109.25
2018-07-06T09:36:34.792Z,101102.13
2018-07-06T09:39:41.106Z,101106.87
2018-07-06T09:42:46.234Z,101105.89
2018-07-06T09:45:51.347Z,101097.78
2018-07-06T09:48:57.201Z,101110.20
2018-07-06T09:52:02.736Z,101107.51
2018-07-06T09:55:07.818Z,101105.67
2018-07-06T09:58:12.899Z,101107.98
2018-07-06T10:01:18.753Z,101105.49
2018-07-06T10:04:25.158Z,101113.67
2018-07-06T10:07:31.150Z,101113.64
2018-07-06T10:10:36.978Z,101110.07
2018-07-06T10:13:42.334Z,101112.51
2018-07-06T10:16:47.522Z,101116.59
2018-07-06T10:19:52.688Z,101111.00
2018-07-06T10:22:57.932Z,101115.67
2018-07-06T10:26:03.433Z,101124.31
2018-07-06T10:29:19.910Z,101125.75
2018-07-06T10:32:26.787Z,101141.08
2018-07-06T10:35:32.238Z,101138.20
2018-07-06T10:38:37.572Z,101138.27
2018-07-06T10:41:43.250Z,101128.67
2018-07-06T10:44:48.405Z,101132.38
2018-07-06T10:47:53.868Z,101136.41
2018-07-06T10:50:59.976Z,101136.95
2018-07-06T10:54:05.071Z,101135.81
2018-07-06T10:57:10.258Z,101145.09
2018-07-06T11:00:16.155Z,101142.43
2018-07-06T11:03:22.191Z,101139.88
2018-07-06T11:06:28.235Z,101138.05
2018-07-06T11:09:33.331Z,101142.02
2018-07-06T11:12:38.417Z,101130.46
2018-07-06T11:15:43.716Z,101147.07
2018-07-06T11:18:49.956Z,101161.50
2018-07-06T11:21:55.700Z,101148.48
2018-07-06T11:25:02.117Z,101168.87
2018-07-06T11:28:08.378Z,101162.67
2018-07-06T11:31:14.318Z,101149.02
2018-07-06T11:34:19.449Z,101166.45
2018-07-06T11:37:24.673Z,101165.20
2018-07-06T11:40:30.160Z,101166.80
2018-07-06T11:43:36.286Z,101168.45
2018-07-06T11:46:41.385Z,101174.70
2018-07-06T11:49:47.183Z,101173.94
2018-07-06T11:52:52.328Z,101175.95
2018-07-06T11:55:57.775Z,101182.55
2018-07-06T11:59:04.062Z,101177.66
2018-07-06T12:02:11.007Z,101176.20
2018-07-06T12:05:16.742Z,101189.23
2018-07-06T12:08:22.023Z,101186.05
2018-07-06T12:11:27.373Z,101181.30
2018-07-06T12:14:34.770Z,101197.28
2018-07-06T12:17:40.506Z,101194.80
2018-07-06T12:20:45.690Z,101186.45
2018-07-06T12:23:51.901Z,101188.50
2018-07-06T12:26:58.293Z,101192.77
2018-07-06T12:30:04.123Z,101192.39
2018-07-06T12:33:08.985Z,101184.97
2018-07-06T12:36:14.754Z,101198.00
2018-07-06T12:39:20.493Z,101185.16
2018-07-06T12:42:25.687Z,101197.19
2018-07-06T12:45:31.471Z,101193.67
2018-07-06T12:48:38.274Z,101191.09
2018-07-06T12:51:43.693Z,101196.11
2018-07-06T12:54:48.777Z,101199.11
2018-07-06T12:57:54.238Z,101196.42
2018-07-06T13:00:59.163Z,101198.93
2018-07-06T13:04:04.251Z,101197.31
2018-07-06T13:07:09.686Z,101199.03
2018-07-06T13:10:14.782Z,101203.98
2018-07-06T13:13:20.582Z,101200.38
2018-07-06T13:16:26.299Z,101205.36
2018-07-06T13:19:32.417Z,101224.12
2018-07-06T13:22:37.522Z,101210.37
2018-07-06T13:25:42.842Z,101215.31
2018-07-06T13:28:48.482Z,101220.47
2018-07-06T13:31:55.181Z,101218.86
2018-07-06T13:35:00.914Z,101219.05
2018-07-06T13:38:07.039Z,101226.64
2018-07-06T13:41:13.059Z,101226.00
2018-07-06T13:44:19.016Z,101227.31
2018-07-06T13:47:24.088Z,101223.72
2018-07-06T13:50:29.230Z,101233.60
2018-07-06T13:53:34.350Z,101229.67
2018-07-06T13:56:39.840Z,101233.18
2018-07-06T13:59:46.110Z,101246.00
2018-07-06T14:02:52.309Z,101231.81
2018-07-06T14:05:58.098Z,101241.33
2018-07-06T14:09:03.268Z,101235.29
2018-07-06T14:12:09.210Z,101238.31
2018-07-06T14:15:15.370Z,101242.77
2018-07-06T14:18:20.414Z,101253.78
2018-07-06T14:21:26.839Z,101244.80
2018-07-06T14:24:31.986Z,101255.03
2018-07-06T14:27:37.413Z,101257.23
2018-07-06T14:30:42.556Z,101250.72
2018-07-06T14:33:47.977Z,101256.95
2018-07-06T14:36:53.091Z,101262.33
2018-07-06T14:39:58.351Z,101256.34
2018-07-06T14:43:03.678Z,101264.49
2018-07-06T14:46:09.622Z,101268.67
2018-07-06T14:49:14.761Z,101270.08
2018-07-06T14:52:22.332Z,101285.42
2018-07-06T14:55:28.397Z,101277.06
2018-07-06T14:58:34.754Z,101268.70
2018-07-06T15:01:40.624Z,101289.70
2018-07-06T15:04:46.586Z,101284.51
2018-07-06T15:07:52.532Z,101289.27
2018-07-06T15:10:57.622Z,101290.89
2018-07-06T15:14:02.756Z,101289.23
2018-07-06T15:17:08.442Z,101293.51
2018-07-06T15:20:15.871Z,101299.06
2018-07-06T15:23:21.598Z,101295.46
2018-07-06T15:26:27.054Z,101298.39
2018-07-06T15:29:33.009Z,101308.21
2018-07-06T15:32:38.114Z,101312.23
2018-07-06T15:35:43.630Z,101313.50
2018-07-06T15:38:49.873Z,101310.63
2018-07-06T15:41:57.045Z,101313.06
2018-07-06T15:45:02.770Z,101327.78
2018-07-06T15:48:08.182Z,101318.23
2018-07-06T15:51:14.510Z,101323.97
2018-07-06T15:54:20.908Z,101327.30
2018-07-06T15:57:26.540Z,101332.09
2018-07-06T16:00:32.334Z,101328.67
2018-07-06T16:03:37.463Z,101325.98
2018-07-06T16:06:43.084Z,101322.75
2018-07-06T16:09:48.242Z,101321.36
2018-07-06T16:12:53.353Z,101319.71
2018-07-06T16:15:59.695Z,101328.02
2018-07-06T16:19:05.127Z,101327.11
2018-07-06T16:22:10.449Z,101326.05
2018-07-06T16:25:15.764Z,101328.53
2018-07-06T16:28:20.891Z,101322.75
2018-07-06T16:31:26.029Z,101328.05
2018-07-06T16:34:31.354Z,101334.36
2018-07-06T16:37:37.707Z,101328.98
2018-07-06T16:40:43.368Z,101332.37
2018-07-06T16:43:49.479Z,101330.25
2018-07-06T16:46:55.855Z,101327.77
2018-07-06T16:50:02.137Z,101331.78
2018-07-06T16:53:08.122Z,101330.72
2018-07-06T16:56:13.214Z,101334.58
2018-07-06T16:59:18.493Z,101338.92
2018-07-06T17:02:23.598Z,101335.19
2018-07-06T17:05:28.455Z,101335.36
2018-07-06T17:08:34.326Z,101335.96
2018-07-06T17:11:39.770Z,101330.35
2018-07-06T17:14:45.853Z,101332.76
2018-07-06T17:17:51.556Z,101334.62
2018-07-06T17:20:57.736Z,101330.17
2018-07-06T17:24:03.914Z,101332.37
2018-07-06T17:27:09.742Z,101342.17
2018-07-06T17:30:14.831Z,101344.12
2018-07-06T17:33:20.264Z,101338.97
2018-07-06T17:36:25.477Z,101343.50
2018-07-06T17:39:30.900Z,101345.89
2018-07-06T17:42:36.910Z,101337.11
2018-07-06T17:45:41.986Z,101342.37
2018-07-06T17:48:48.554Z,101342.64
2018-07-06T17:51:54.854Z,101349.83
2018-07-06T17:55:00.454Z,101344.52
2018-07-06T17:58:05.903Z,101354.28
2018-07-06T18:01:12.125Z,101360.14
2018-07-06T18:04:17.885Z,101358.62
2018-07-06T18:07:23.917Z,101355.34
2018-07-06T18:10:29.210Z,101355.59
2018-07-06T18:13:34.910Z,101352.40
2018-07-06T18:16:40.809Z,101357.61
2018-07-06T18:19:46.528Z,101368.03
2018-07-06T18:22:52.496Z,101364.73
2018-07-06T18:25:58.782Z,101368.30
2018-07-06T18:29:04.702Z,101380.49
2018-07-06T18:32:09.836Z,101378.11
2018-07-06T18:35:14.962Z,101377.75
2018-07-06T18:38:20.054Z,101379.51
2018-07-06T18:41:26.050Z,101376.77
2018-07-06T18:44:32.045Z,101376.94
2018-07-06T18:47:38.356Z,101381.88
2018-07-06T18:50:43.814Z,101374.38
2018-07-06T18:53:49.698Z,101378.84
2018-07-06T18:56:54.854Z,101375.59
2018-07-06T19:00:00.834Z,101377.67
2018-07-06T19:03:06.426Z,101387.56
2018-07-06T19:06:11.997Z,101392.16
2018-07-06T19:09:17.894Z,101393.27
2018-07-06T19:12:23.722Z,101396.07
2018-07-06T19:15:29.753Z,101396.91
2018-07-06T19:18:35.981Z,101397.42
2018-07-06T19:21:42.027Z,101398.89
2018-07-06T19:24:47.475Z,101395.20
2018-07-06T19:27:53.858Z,101397.81
2018-07-06T19:30:59.838Z,101404.50
2018-07-06T19:34:05.986Z,101408.50
2018-07-06T19:37:11.371Z,101408.03
2018-07-06T19:40:17.277Z,101410.37
2018-07-06T19:43:23.303Z,101408.96
2018-07-06T19:46:29.532Z,101405.77
2018-07-06T19:49:35.573Z,101411.96
2018-07-06T19:52:40.432Z,101408.92
2018-07-06T19:55:46.031Z,101415.67
2018-07-06T19:58:51.151Z,101421.45
2018-07-06T20:01:57.083Z,101424.56
2018-07-06T20:05:03.091Z,101429.28
2018-07-06T20:08:08.179Z,101429.30
2018-07-06T20:11:13.283Z,101434.97
2018-07-06T20:14:18.790Z,101435.07
2018-07-06T20:17:24.119Z,101438.28
2018-07-06T20:20:29.226Z,101437.98
2018-07-06T20:23:34.317Z,101441.91
2018-07-06T20:26:40.403Z,101443.67
2018-07-06T20:29:45.934Z,101440.72
2018-07-06T20:32:52.058Z,101435.06
2018-07-06T20:35:57.494Z,101442.01
2018-07-06T20:39:03.747Z,101447.48
2018-07-06T20:42:09.159Z,101446.38
2018-07-06T20:45:14.220Z,101444.06
2018-07-06T20:48:19.350Z,101441.73
2018-07-06T20:51:25.350Z,101446.45
2018-07-06T20:54:31.287Z,101448.59
2018-07-06T20:57:38.639Z,101446.47
2018-07-06T21:00:44.694Z,101449.58
2018-07-06T21:03:51.180Z,101447.35
2018-07-06T21:06:56.909Z,101453.28
2018-07-06T21:10:02.058Z,101443.17
2018-07-06T21:13:07.506Z,101445.11
2018-07-06T21:16:13.456Z,101449.53
2018-07-06T21:19:20.035Z,101446.94
2018-07-06T21:22:25.990Z,101447.09
2018-07-06T21:25:31.511Z,101450.61
2018-07-06T21:28:36.586Z,101455.14
2018-07-06T21:31:41.401Z,101459.97
2018-07-06T21:34:46.904Z,101453.72
2018-07-06T21:37:52.923Z,101445.05
2018-07-06T21:40:58.849Z,101448.74
2018-07-06T21:44:03.957Z,101447.36
2018-07-06T21:47:09.065Z,101445.28
2018-07-06T21:50:14.717Z,101454.98
2018-07-06T21:53:19.797Z,101446.38
2018-07-06T21:56:25.237Z,101444.13
2018-07-06T21:59:30.310Z,101448.73
2018-07-06T22:02:35.685Z,101449.89
2018-07-06T22:05:42.366Z,101446.19
2018-07-06T22:08:48.222Z,101450.44
2018-07-06T22:11:53.382Z,101451.77
2018-07-06T22:14:59.422Z,101449.97
2018-07-06T22:18:05.361Z,101445.05
2018-07-06T22:21:10.485Z,101448.05
2018-07-06T22:24:15.930Z,101452.76
2018-07-06T22:27:21.959Z,101450.58
2018-07-06T22:30:27.893Z,101450.17
2018-07-06T22:33:32.995Z,101452.93
2018-07-06T22:36:38.276Z,101449.25
2018-07-06T22:39:43.408Z,101446.38
2018-07-06T22:42:49.745Z,101447.38
2018-07-06T22:45:54.555Z,101448.30
2018-07-06T22:49:00.174Z,101442.44
2018-07-06T22:52:06.473Z,101446.20
2018-07-06T22:55:12.617Z,101440.28
2018-07-06T22:58:18.963Z,101447.61
2018-07-06T23:01:25.004Z,101449.38
2018-07-06T23:04:30.691Z,101448.09
2018-07-06T23:07:36.682Z,101448.26
2018-07-06T23:10:42.205Z,101454.80
2018-07-06T23:13:47.026Z,101452.95
2018-07-06T23:16:52.112Z,101457.33
2018-07-06T23:19:57.211Z,101455.70
2018-07-06T23:23:07.377Z,101456.09
2018-07-06T23:26:12.497Z,101447.88
2018-07-06T23:29:17.601Z,101447.75
2018-07-06T23:32:22.708Z,101444.64
2018-07-06T23:35:27.598Z,101444.59
2018-07-06T23:38:32.685Z,101445.71
2018-07-06T23:41:39.102Z,101449.97
2018-07-06T23:44:44.793Z,101450.59
2018-07-06T23:47:50.099Z,101449.30
2018-07-06T23:50:56.013Z,101450.97
2018-07-06T23:54:02.122Z,101451.97
2018-07-06T23:57:07.214Z,101454.09
